sensor_id;sensor_type;location;lat;lon;timestamp;temperature;humidity
18593;DHT22;9426;54.118;17.948;2023-05-10T00:03:24;6.80;99.90
18593;DHT22;9426;54.118;17.948;2023-05-10T00:08:48;6.70;99.90
18593;DHT22;9426;54.118;17.948;2023-05-10T00:14:12;6.70;99.90
18593;DHT22;9426;54.118;17.948;2023-05-10T00:19:37;6.70;99.90
18593;DHT22;9426;54.118;17.948;2023-05-10T00:25:01;6.70;99.90
18593;DHT22;9426;54.118;17.948;2023-05-10T00:30:24;6.60;99.90
18593;DHT22;9426;54.118;17.948;2023-05-10T00:35:50;6.60;99.90
18593;DHT22;9426;54.118;17.948;2023-05-10T00:41:14;6.50;99.90
18593;DHT22;9426;54.118;17.948;2023-05-10T00:46:40;6.40;99.90
18593;DHT22;9426;54.118;17.948;2023-05-10T00:52:05;6.40;99.90
18593;DHT22;9426;54.118;17.948;2023-05-10T00:57:29;6.30;99.90
18593;DHT22;9426;54.118;17.948;2023-05-10T01:02:53;6.30;99.90
18593;DHT22;9426;54.118;17.948;2023-05-10T01:08:19;6.20;99.90
18593;DHT22;9426;54.118;17.948;2023-05-10T01:13:53;6.20;99.90
18593;DHT22;9426;54.118;17.948;2023-05-10T01:19:22;6.20;99.90
18593;DHT22;9426;54.118;17.948;2023-05-10T01:25:11;6.10;99.90
18593;DHT22;9426;54.118;17.948;2023-05-10T01:36:43;6.00;99.90
18593;DHT22;9426;54.118;17.948;2023-05-10T01:42:11;6.10;99.90
18593;DHT22;9426;54.118;17.948;2023-05-10T01:47:40;6.00;99.90
18593;DHT22;9426;54.118;17.948;2023-05-10T01:53:08;6.00;99.90
18593;DHT22;9426;54.118;17.948;2023-05-10T01:58:34;6.00;99.90
18593;DHT22;9426;54.118;17.948;2023-05-10T02:04:00;6.00;99.90
18593;DHT22;9426;54.118;17.948;2023-05-10T02:09:28;6.00;99.90
18593;DHT22;9426;54.118;17.948;2023-05-10T02:14:53;5.90;99.90
18593;DHT22;9426;54.118;17.948;2023-05-10T02:20:19;5.90;99.90
18593;DHT22;9426;54.118;17.948;2023-05-10T02:25:48;6.00;99.90
18593;DHT22;9426;54.118;17.948;2023-05-10T02:31:11;5.90;99.90
18593;DHT22;9426;54.118;17.948;2023-05-10T02:36:36;5.90;99.90
18593;DHT22;9426;54.118;17.948;2023-05-10T02:42:02;5.80;99.90
18593;DHT22;9426;54.118;17.948;2023-05-10T02:47:26;5.80;99.90
18593;DHT22;9426;54.118;17.948;2023-05-10T02:52:51;5.80;99.90
18593;DHT22;9426;54.118;17.948;2023-05-10T02:58:17;5.80;99.90
18593;DHT22;9426;54.118;17.948;2023-05-10T03:03:41;5.80;99.90
18593;DHT22;9426;54.118;17.948;2023-05-10T03:09:05;5.70;99.90
18593;DHT22;9426;54.118;17.948;2023-05-10T03:14:45;5.80;99.90
18593;DHT22;9426;54.118;17.948;2023-05-10T03:20:17;5.80;99.90
18593;DHT22;9426;54.118;17.948;2023-05-10T03:25:47;5.90;99.90
18593;DHT22;9426;54.118;17.948;2023-05-10T03:31:13;6.00;99.90
18593;DHT22;9426;54.118;17.948;2023-05-10T03:36:37;6.20;99.90
18593;DHT22;9426;54.118;17.948;2023-05-10T03:42:01;6.30;99.90
18593;DHT22;9426;54.118;17.948;2023-05-10T03:47:26;6.40;99.90
18593;DHT22;9426;54.118;17.948;2023-05-10T03:52:52;6.60;99.90
18593;DHT22;9426;54.118;17.948;2023-05-10T03:58:16;6.70;99.90
18593;DHT22;9426;54.118;17.948;2023-05-10T04:03:41;6.90;99.90
18593;DHT22;9426;54.118;17.948;2023-05-10T04:09:06;7.10;99.90
18593;DHT22;9426;54.118;17.948;2023-05-10T04:14:30;7.30;99.90
18593;DHT22;9426;54.118;17.948;2023-05-10T04:19:56;7.50;99.90
18593;DHT22;9426;54.118;17.948;2023-05-10T04:25:19;7.80;99.90
18593;DHT22;9426;54.118;17.948;2023-05-10T04:30:43;8.00;99.90
18593;DHT22;9426;54.118;17.948;2023-05-10T04:36:08;8.20;99.90
18593;DHT22;9426;54.118;17.948;2023-05-10T04:41:32;8.40;99.90
18593;DHT22;9426;54.118;17.948;2023-05-10T04:46:55;8.50;99.90
18593;DHT22;9426;54.118;17.948;2023-05-10T04:52:20;8.70;99.90
18593;DHT22;9426;54.118;17.948;2023-05-10T04:57:44;8.90;99.90
18593;DHT22;9426;54.118;17.948;2023-05-10T05:03:08;9.10;99.90
18593;DHT22;9426;54.118;17.948;2023-05-10T05:08:33;9.20;99.90
18593;DHT22;9426;54.118;17.948;2023-05-10T05:13:56;9.30;99.90
18593;DHT22;9426;54.118;17.948;2023-05-10T05:19:21;9.50;99.90
18593;DHT22;9426;54.118;17.948;2023-05-10T05:24:46;9.70;99.90
18593;DHT22;9426;54.118;17.948;2023-05-10T05:30:11;9.90;99.90
18593;DHT22;9426;54.118;17.948;2023-05-10T05:35:35;10.00;99.90
18593;DHT22;9426;54.118;17.948;2023-05-10T05:41:00;10.20;99.90
18593;DHT22;9426;54.118;17.948;2023-05-10T05:46:24;10.60;99.90
18593;DHT22;9426;54.118;17.948;2023-05-10T05:51:48;10.70;99.90
18593;DHT22;9426;54.118;17.948;2023-05-10T05:57:13;10.90;99.90
18593;DHT22;9426;54.118;17.948;2023-05-10T06:02:36;11.20;99.90
18593;DHT22;9426;54.118;17.948;2023-05-10T06:08:00;11.30;99.90
18593;DHT22;9426;54.118;17.948;2023-05-10T06:13:25;11.60;99.90
18593;DHT22;9426;54.118;17.948;2023-05-10T06:18:50;11.80;99.90
18593;DHT22;9426;54.118;17.948;2023-05-10T06:24:14;12.00;99.90
18593;DHT22;9426;54.118;17.948;2023-05-10T06:29:39;12.20;99.90
18593;DHT22;9426;54.118;17.948;2023-05-10T06:35:02;12.40;99.90
18593;DHT22;9426;54.118;17.948;2023-05-10T06:40:26;12.60;99.90
18593;DHT22;9426;54.118;17.948;2023-05-10T06:45:51;12.90;99.90
18593;DHT22;9426;54.118;17.948;2023-05-10T06:51:15;13.10;99.90
18593;DHT22;9426;54.118;17.948;2023-05-10T06:56:39;13.40;99.90
18593;DHT22;9426;54.118;17.948;2023-05-10T07:02:04;13.60;99.30
18593;DHT22;9426;54.118;17.948;2023-05-10T07:07:28;13.80;98.10
18593;DHT22;9426;54.118;17.948;2023-05-10T07:12:52;14.10;98.80
18593;DHT22;9426;54.118;17.948;2023-05-10T07:18:17;14.40;96.30
18593;DHT22;9426;54.118;17.948;2023-05-10T07:23:40;14.60;95.30
18593;DHT22;9426;54.118;17.948;2023-05-10T07:29:05;14.90;91.90
18593;DHT22;9426;54.118;17.948;2023-05-10T07:34:30;15.10;91.20
18593;DHT22;9426;54.118;17.948;2023-05-10T07:39:54;15.30;88.20
18593;DHT22;9426;54.118;17.948;2023-05-10T07:45:18;15.40;83.20
18593;DHT22;9426;54.118;17.948;2023-05-10T07:50:43;15.50;81.80
18593;DHT22;9426;54.118;17.948;2023-05-10T07:56:21;15.70;81.10
18593;DHT22;9426;54.118;17.948;2023-05-10T08:01:46;15.80;79.60
18593;DHT22;9426;54.118;17.948;2023-05-10T08:07:11;15.90;77.30
18593;DHT22;9426;54.118;17.948;2023-05-10T08:12:35;16.00;77.30
18593;DHT22;9426;54.118;17.948;2023-05-10T08:17:58;16.20;74.30
18593;DHT22;9426;54.118;17.948;2023-05-10T08:23:48;16.30;75.60
18593;DHT22;9426;54.118;17.948;2023-05-10T08:29:12;16.50;75.70
18593;DHT22;9426;54.118;17.948;2023-05-10T08:34:36;16.50;72.70
18593;DHT22;9426;54.118;17.948;2023-05-10T08:40:01;16.50;74.50
18593;DHT22;9426;54.118;17.948;2023-05-10T08:45:25;16.70;73.90
18593;DHT22;9426;54.118;17.948;2023-05-10T08:50:52;16.90;74.60
18593;DHT22;9426;54.118;17.948;2023-05-10T08:56:17;16.90;73.30
18593;DHT22;9426;54.118;17.948;2023-05-10T09:01:43;17.00;72.70
18593;DHT22;9426;54.118;17.948;2023-05-10T09:07:07;17.20;72.60
18593;DHT22;9426;54.118;17.948;2023-05-10T09:12:32;17.30;73.00
18593;DHT22;9426;54.118;17.948;2023-05-10T09:17:56;17.50;70.70
18593;DHT22;9426;54.118;17.948;2023-05-10T09:23:23;17.60;70.50
18593;DHT22;9426;54.118;17.948;2023-05-10T09:28:56;17.70;70.80
18593;DHT22;9426;54.118;17.948;2023-05-10T09:34:20;17.90;70.10
18593;DHT22;9426;54.118;17.948;2023-05-10T09:39:44;18.10;70.20
18593;DHT22;9426;54.118;17.948;2023-05-10T09:45:09;18.30;68.30
18593;DHT22;9426;54.118;17.948;2023-05-10T09:50:33;18.50;68.80
18593;DHT22;9426;54.118;17.948;2023-05-10T09:55:57;18.70;69.20
18593;DHT22;9426;54.118;17.948;2023-05-10T10:01:26;18.80;67.00
18593;DHT22;9426;54.118;17.948;2023-05-10T10:06:59;18.90;66.30
18593;DHT22;9426;54.118;17.948;2023-05-10T10:12:23;18.90;62.20
18593;DHT22;9426;54.118;17.948;2023-05-10T10:17:48;19.00;64.60
18593;DHT22;9426;54.118;17.948;2023-05-10T10:23:12;19.20;62.20
18593;DHT22;9426;54.118;17.948;2023-05-10T10:28:44;19.30;65.90
18593;DHT22;9426;54.118;17.948;2023-05-10T10:34:22;19.70;61.40
18593;DHT22;9426;54.118;17.948;2023-05-10T10:39:48;19.80;62.70
18593;DHT22;9426;54.118;17.948;2023-05-10T10:45:13;20.10;60.50
18593;DHT22;9426;54.118;17.948;2023-05-10T10:50:45;20.20;59.90
18593;DHT22;9426;54.118;17.948;2023-05-10T10:56:09;20.20;58.50
18593;DHT22;9426;54.118;17.948;2023-05-10T11:01:35;20.40;57.70
18593;DHT22;9426;54.118;17.948;2023-05-10T11:07:17;20.60;57.20
18593;DHT22;9426;54.118;17.948;2023-05-10T11:12:52;21.40;55.90
18593;DHT22;9426;54.118;17.948;2023-05-10T11:18:20;21.10;57.10
18593;DHT22;9426;54.118;17.948;2023-05-10T11:23:53;21.20;57.00
18593;DHT22;9426;54.118;17.948;2023-05-10T11:29:19;21.30;56.50
18593;DHT22;9426;54.118;17.948;2023-05-10T11:34:42;21.40;56.20
18593;DHT22;9426;54.118;17.948;2023-05-10T11:40:12;21.70;56.20
18593;DHT22;9426;54.118;17.948;2023-05-10T11:45:37;22.60;54.70
18593;DHT22;9426;54.118;17.948;2023-05-10T11:51:01;24.30;51.60
18593;DHT22;9426;54.118;17.948;2023-05-10T11:56:26;25.80;49.90
18593;DHT22;9426;54.118;17.948;2023-05-10T12:01:50;26.90;50.40
18593;DHT22;9426;54.118;17.948;2023-05-10T12:07:13;27.50;47.60
18593;DHT22;9426;54.118;17.948;2023-05-10T12:12:39;28.20;46.70
18593;DHT22;9426;54.118;17.948;2023-05-10T12:18:05;28.80;44.90
18593;DHT22;9426;54.118;17.948;2023-05-10T12:23:30;29.20;44.50
18593;DHT22;9426;54.118;17.948;2023-05-10T12:29:11;28.80;44.70
18593;DHT22;9426;54.118;17.948;2023-05-10T12:34:35;29.10;44.10
18593;DHT22;9426;54.118;17.948;2023-05-10T12:40:00;29.40;44.60
18593;DHT22;9426;54.118;17.948;2023-05-10T12:45:25;30.10;44.40
18593;DHT22;9426;54.118;17.948;2023-05-10T12:50:49;30.20;43.70
18593;DHT22;9426;54.118;17.948;2023-05-10T12:56:12;30.50;43.70
18593;DHT22;9426;54.118;17.948;2023-05-10T13:01:38;30.90;43.90
18593;DHT22;9426;54.118;17.948;2023-05-10T13:07:07;31.00;42.60
18593;DHT22;9426;54.118;17.948;2023-05-10T13:12:44;30.70;42.90
18593;DHT22;9426;54.118;17.948;2023-05-10T13:18:26;30.60;42.10
18593;DHT22;9426;54.118;17.948;2023-05-10T13:23:52;30.30;42.60
18593;DHT22;9426;54.118;17.948;2023-05-10T13:29:17;30.10;43.20
18593;DHT22;9426;54.118;17.948;2023-05-10T13:34:42;30.20;42.20
18593;DHT22;9426;54.118;17.948;2023-05-10T13:40:06;30.20;42.00
18593;DHT22;9426;54.118;17.948;2023-05-10T13:45:30;29.90;42.40
18593;DHT22;9426;54.118;17.948;2023-05-10T13:50:55;30.30;42.20
18593;DHT22;9426;54.118;17.948;2023-05-10T13:56:19;30.40;42.60
18593;DHT22;9426;54.118;17.948;2023-05-10T14:01:42;30.90;41.90
18593;DHT22;9426;54.118;17.948;2023-05-10T14:07:07;31.20;42.70
18593;DHT22;9426;54.118;17.948;2023-05-10T14:12:31;31.30;41.30
18593;DHT22;9426;54.118;17.948;2023-05-10T14:17:55;30.50;41.10
18593;DHT22;9426;54.118;17.948;2023-05-10T14:23:21;30.30;41.30
18593;DHT22;9426;54.118;17.948;2023-05-10T14:28:47;30.00;41.00
18593;DHT22;9426;54.118;17.948;2023-05-10T14:34:10;29.60;41.20
18593;DHT22;9426;54.118;17.948;2023-05-10T14:39:35;30.10;41.20
18593;DHT22;9426;54.118;17.948;2023-05-10T14:44:58;30.40;41.20
18593;DHT22;9426;54.118;17.948;2023-05-10T14:50:22;30.30;40.60
18593;DHT22;9426;54.118;17.948;2023-05-10T14:55:54;30.20;40.00
18593;DHT22;9426;54.118;17.948;2023-05-10T15:01:17;30.20;39.80
18593;DHT22;9426;54.118;17.948;2023-05-10T15:06:41;30.00;40.60
18593;DHT22;9426;54.118;17.948;2023-05-10T15:12:07;30.40;39.30
18593;DHT22;9426;54.118;17.948;2023-05-10T15:17:30;29.90;39.30
18593;DHT22;9426;54.118;17.948;2023-05-10T15:22:54;29.70;40.40
18593;DHT22;9426;54.118;17.948;2023-05-10T15:28:19;30.30;39.40
18593;DHT22;9426;54.118;17.948;2023-05-10T15:33:43;30.80;39.50
18593;DHT22;9426;54.118;17.948;2023-05-10T15:39:07;30.10;39.90
18593;DHT22;9426;54.118;17.948;2023-05-10T15:44:32;30.00;39.90
18593;DHT22;9426;54.118;17.948;2023-05-10T15:49:57;29.40;40.90
18593;DHT22;9426;54.118;17.948;2023-05-10T15:55:20;30.00;40.70
18593;DHT22;9426;54.118;17.948;2023-05-10T16:00:45;30.20;38.90
18593;DHT22;9426;54.118;17.948;2023-05-10T16:06:08;29.90;39.90
18593;DHT22;9426;54.118;17.948;2023-05-10T16:11:32;30.20;39.00
18593;DHT22;9426;54.118;17.948;2023-05-10T16:16:57;29.60;40.20
18593;DHT22;9426;54.118;17.948;2023-05-10T16:22:21;29.80;40.10
18593;DHT22;9426;54.118;17.948;2023-05-10T16:27:48;28.70;40.20
18593;DHT22;9426;54.118;17.948;2023-05-10T16:33:13;27.80;41.50
18593;DHT22;9426;54.118;17.948;2023-05-10T16:38:37;27.50;41.90
18593;DHT22;9426;54.118;17.948;2023-05-10T16:44:01;26.30;43.10
18593;DHT22;9426;54.118;17.948;2023-05-10T16:49:26;24.10;46.40
18593;DHT22;9426;54.118;17.948;2023-05-10T16:54:49;22.20;48.90
18593;DHT22;9426;54.118;17.948;2023-05-10T17:00:14;21.30;51.50
18593;DHT22;9426;54.118;17.948;2023-05-10T17:05:39;21.00;51.20
18593;DHT22;9426;54.118;17.948;2023-05-10T17:11:04;20.30;52.30
18593;DHT22;9426;54.118;17.948;2023-05-10T17:16:28;19.50;54.40
18593;DHT22;9426;54.118;17.948;2023-05-10T17:21:55;19.00;56.10
18593;DHT22;9426;54.118;17.948;2023-05-10T17:27:18;18.40;56.40
18593;DHT22;9426;54.118;17.948;2023-05-10T17:32:42;17.90;58.20
18593;DHT22;9426;54.118;17.948;2023-05-10T17:38:07;17.50;59.50
18593;DHT22;9426;54.118;17.948;2023-05-10T17:43:31;17.20;59.70
18593;DHT22;9426;54.118;17.948;2023-05-10T17:48:55;16.80;60.60
18593;DHT22;9426;54.118;17.948;2023-05-10T17:54:20;16.60;60.90
18593;DHT22;9426;54.118;17.948;2023-05-10T17:59:44;16.30;61.70
18593;DHT22;9426;54.118;17.948;2023-05-10T18:05:09;16.00;62.80
18593;DHT22;9426;54.118;17.948;2023-05-10T18:10:35;15.70;63.70
18593;DHT22;9426;54.118;17.948;2023-05-10T18:16:00;15.60;65.10
18593;DHT22;9426;54.118;17.948;2023-05-10T18:21:26;15.30;65.10
18593;DHT22;9426;54.118;17.948;2023-05-10T18:26:51;15.10;65.00
18593;DHT22;9426;54.118;17.948;2023-05-10T18:32:15;14.80;66.00
18593;DHT22;9426;54.118;17.948;2023-05-10T18:37:38;14.60;67.20
18593;DHT22;9426;54.118;17.948;2023-05-10T18:43:04;14.30;68.40
18593;DHT22;9426;54.118;17.948;2023-05-10T18:48:29;14.00;68.50
18593;DHT22;9426;54.118;17.948;2023-05-10T18:53:56;13.80;69.20
18593;DHT22;9426;54.118;17.948;2023-05-10T18:59:21;13.60;70.40
18593;DHT22;9426;54.118;17.948;2023-05-10T19:04:45;13.30;71.20
18593;DHT22;9426;54.118;17.948;2023-05-10T19:10:13;13.10;72.20
18593;DHT22;9426;54.118;17.948;2023-05-10T19:15:38;13.00;72.00
18593;DHT22;9426;54.118;17.948;2023-05-10T19:21:02;12.80;72.90
18593;DHT22;9426;54.118;17.948;2023-05-10T19:26:30;12.70;73.90
18593;DHT22;9426;54.118;17.948;2023-05-10T19:31:57;12.60;74.20
18593;DHT22;9426;54.118;17.948;2023-05-10T19:37:21;12.40;75.20
18593;DHT22;9426;54.118;17.948;2023-05-10T19:42:45;12.20;76.30
18593;DHT22;9426;54.118;17.948;2023-05-10T19:48:11;12.20;76.50
18593;DHT22;9426;54.118;17.948;2023-05-10T19:53:35;12.00;76.40
18593;DHT22;9426;54.118;17.948;2023-05-10T19:58:58;11.90;77.20
18593;DHT22;9426;54.118;17.948;2023-05-10T20:04:25;11.80;75.30
18593;DHT22;9426;54.118;17.948;2023-05-10T20:09:49;11.70;66.10
18593;DHT22;9426;54.118;17.948;2023-05-10T20:15:13;11.50;62.20
18593;DHT22;9426;54.118;17.948;2023-05-10T20:20:38;11.30;59.70
18593;DHT22;9426;54.118;17.948;2023-05-10T20:26:02;11.20;59.00
18593;DHT22;9426;54.118;17.948;2023-05-10T20:31:26;11.00;59.50
18593;DHT22;9426;54.118;17.948;2023-05-10T20:36:51;10.90;59.90
18593;DHT22;9426;54.118;17.948;2023-05-10T20:42:15;10.70;60.50
18593;DHT22;9426;54.118;17.948;2023-05-10T20:47:39;10.60;60.90
18593;DHT22;9426;54.118;17.948;2023-05-10T20:53:04;10.20;63.00
18593;DHT22;9426;54.118;17.948;2023-05-10T20:58:28;10.60;74.70
18593;DHT22;9426;54.118;17.948;2023-05-10T21:03:51;10.50;84.20
18593;DHT22;9426;54.118;17.948;2023-05-10T21:09:16;10.50;85.10
18593;DHT22;9426;54.118;17.948;2023-05-10T21:14:40;10.40;85.40
18593;DHT22;9426;54.118;17.948;2023-05-10T21:20:06;10.40;85.90
18593;DHT22;9426;54.118;17.948;2023-05-10T21:25:31;10.30;86.20
18593;DHT22;9426;54.118;17.948;2023-05-10T21:30:56;10.20;87.90
18593;DHT22;9426;54.118;17.948;2023-05-10T21:36:19;10.20;89.20
18593;DHT22;9426;54.118;17.948;2023-05-10T21:41:46;10.10;89.60
18593;DHT22;9426;54.118;17.948;2023-05-10T21:47:09;10.10;90.00
18593;DHT22;9426;54.118;17.948;2023-05-10T21:52:33;10.00;90.80
18593;DHT22;9426;54.118;17.948;2023-05-10T21:57:58;9.80;91.40
18593;DHT22;9426;54.118;17.948;2023-05-10T22:03:22;9.80;85.20
18593;DHT22;9426;54.118;17.948;2023-05-10T22:08:45;9.70;86.70
18593;DHT22;9426;54.118;17.948;2023-05-10T22:14:11;9.60;88.60
18593;DHT22;9426;54.118;17.948;2023-05-10T22:19:34;9.50;90.70
18593;DHT22;9426;54.118;17.948;2023-05-10T22:24:57;9.40;92.90
18593;DHT22;9426;54.118;17.948;2023-05-10T22:30:22;9.20;95.10
18593;DHT22;9426;54.118;17.948;2023-05-10T22:35:47;9.20;98.40
18593;DHT22;9426;54.118;17.948;2023-05-10T22:41:10;9.20;99.90
18593;DHT22;9426;54.118;17.948;2023-05-10T22:46:35;9.10;99.90
18593;DHT22;9426;54.118;17.948;2023-05-10T22:51:59;9.10;99.90
18593;DHT22;9426;54.118;17.948;2023-05-10T22:57:23;9.10;99.90
18593;DHT22;9426;54.118;17.948;2023-05-10T23:02:48;9.20;99.90
18593;DHT22;9426;54.118;17.948;2023-05-10T23:08:12;9.10;99.90
18593;DHT22;9426;54.118;17.948;2023-05-10T23:13:35;9.10;99.90
18593;DHT22;9426;54.118;17.948;2023-05-10T23:19:00;9.00;99.90
18593;DHT22;9426;54.118;17.948;2023-05-10T23:24:24;8.90;99.90
18593;DHT22;9426;54.118;17.948;2023-05-10T23:29:47;8.90;99.90
18593;DHT22;9426;54.118;17.948;2023-05-10T23:35:15;8.80;99.90
18593;DHT22;9426;54.118;17.948;2023-05-10T23:40:38;8.70;99.90
18593;DHT22;9426;54.118;17.948;2023-05-10T23:46:02;8.60;99.90
18593;DHT22;9426;54.118;17.948;2023-05-10T23:51:28;8.60;99.90
18593;DHT22;9426;54.118;17.948;2023-05-10T23:56:52;8.50;99.90
